createdAt,value
2022-11-05T00:02:29.918Z,21.98
2022-11-05T00:05:15.351Z,22.75
2022-11-05T00:08:03.021Z,23.42
2022-11-05T00:10:31.358Z,24.02
2022-11-05T00:13:17.585Z,24.30
2022-11-05T00:16:03.392Z,23.63
2022-11-05T00:18:30.186Z,23.75
2022-11-05T00:20:57.138Z,25.02
2022-11-05T00:23:42.514Z,25.02
2022-11-05T00:26:11.570Z,23.70
2022-11-05T00:31:09.767Z,25.42
2022-11-05T00:33:37.667Z,25.67
2022-11-05T00:36:05.582Z,27.13
2022-11-05T00:38:32.376Z,24.15
2022-11-05T00:40:59.302Z,25.65
2022-11-05T00:43:44.444Z,24.60
2022-11-05T00:46:11.255Z,25.45
2022-11-05T00:48:56.979Z,26.13
2022-11-05T00:51:23.656Z,24.63
2022-11-05T00:53:50.279Z,25.05
2022-11-05T00:56:16.961Z,24.02
2022-11-05T00:58:43.621Z,24.92
2022-11-05T01:01:10.442Z,25.38
2022-11-05T01:03:39.212Z,26.40
2022-11-05T01:06:12.828Z,26.35
2022-11-05T01:08:40.417Z,25.52
2022-11-05T01:11:33.339Z,25.95
2022-11-05T01:14:09.847Z,25.83
2022-11-05T01:16:37.586Z,24.35
2022-11-05T01:19:05.875Z,25.17
2022-11-05T01:21:32.909Z,25.38
2022-11-05T01:24:00.158Z,26.88
2022-11-05T01:26:27.091Z,25.10
2022-11-05T01:28:54.999Z,24.70
2022-11-05T01:31:22.363Z,26.80
2022-11-05T01:33:49.078Z,26.40
2022-11-05T01:36:15.896Z,24.92
2022-11-05T01:38:42.655Z,28.17
2022-11-05T01:41:09.923Z,26.48
2022-11-05T01:43:57.327Z,26.98
2022-11-05T01:46:28.029Z,25.55
2022-11-05T01:49:02.694Z,28.55
2022-11-05T01:54:04.009Z,26.10
2022-11-05T01:56:38.306Z,29.17
2022-11-05T01:59:37.355Z,26.88
2022-11-05T02:02:04.239Z,28.63
2022-11-05T02:04:35.696Z,27.35
2022-11-05T02:07:03.444Z,28.40
2022-11-05T02:09:34.279Z,29.65
2022-11-05T02:12:01.076Z,28.92
2022-11-05T02:14:27.698Z,28.40
2022-11-05T02:17:19.790Z,28.08
2022-11-05T02:20:24.537Z,28.15
2022-11-05T02:23:24.923Z,28.63
2022-11-05T02:26:08.089Z,28.88
2022-11-05T02:29:04.531Z,30.17
2022-11-05T02:31:40.946Z,29.73
2022-11-05T02:34:32.292Z,29.42
2022-11-05T02:37:10.247Z,30.70
2022-11-05T02:39:53.027Z,30.55
2022-11-05T02:42:31.922Z,29.25
2022-11-05T02:45:13.426Z,32.50
2022-11-05T02:47:50.706Z,29.33
2022-11-05T02:50:25.138Z,31.23
2022-11-05T02:53:16.734Z,31.10
2022-11-05T02:55:55.554Z,32.90
2022-11-05T02:58:22.184Z,30.27
2022-11-05T03:00:51.255Z,31.88
2022-11-05T03:06:09.941Z,32.00
2022-11-05T03:08:58.124Z,29.55
2022-11-05T03:11:27.279Z,32.75
2022-11-05T03:14:03.836Z,31.88
2022-11-05T03:16:37.795Z,33.25
2022-11-05T03:19:21.049Z,33.53
2022-11-05T03:21:54.239Z,35.08
2022-11-05T03:24:24.804Z,32.75
2022-11-05T03:26:55.785Z,36.25
2022-11-05T03:29:27.443Z,31.42
2022-11-05T03:31:56.324Z,34.45
2022-11-05T03:34:28.495Z,32.88
2022-11-05T03:36:56.406Z,34.20
2022-11-05T03:39:33.199Z,34.13
2022-11-05T03:42:01.041Z,33.72
2022-11-05T03:44:31.072Z,34.33
2022-11-05T03:47:02.570Z,32.95
2022-11-05T03:49:34.764Z,33.90
2022-11-05T03:52:08.585Z,35.58
2022-11-05T03:54:35.327Z,34.00
2022-11-05T03:57:21.043Z,32.05
2022-11-05T03:59:49.655Z,34.38
2022-11-05T04:02:18.933Z,35.35
2022-11-05T04:04:46.422Z,36.28
2022-11-05T04:07:31.540Z,35.50
2022-11-05T04:10:16.944Z,34.42
2022-11-05T04:13:02.470Z,33.58
2022-11-05T04:15:52.014Z,35.03
2022-11-05T04:18:18.991Z,36.75
2022-11-05T04:21:04.609Z,35.65
2022-11-05T04:23:50.010Z,35.05
2022-11-05T04:26:16.663Z,36.22
2022-11-05T04:29:06.835Z,36.45
2022-11-05T04:31:34.583Z,35.65
2022-11-05T04:34:01.318Z,38.28
2022-11-05T04:36:28.157Z,37.22
2022-11-05T04:38:54.818Z,38.97
2022-11-05T04:41:21.529Z,36.95
2022-11-05T04:43:48.792Z,35.83
2022-11-05T04:46:15.463Z,36.13
2022-11-05T04:48:42.069Z,37.28
2022-11-05T04:51:08.690Z,35.63
2022-11-05T04:53:35.400Z,38.10
2022-11-05T04:56:24.556Z,48.80
2022-11-05T04:58:51.526Z,63.67
2022-11-05T05:01:23.324Z,37.90
2022-11-05T05:03:51.148Z,42.65
2022-11-05T05:06:18.020Z,38.22
2022-11-05T05:08:45.062Z,40.78
2022-11-05T05:11:13.356Z,37.00
2022-11-05T05:13:39.962Z,38.05
2022-11-05T05:16:16.883Z,44.10
2022-11-05T05:18:46.222Z,38.53
2022-11-05T05:21:32.041Z,43.10
2022-11-05T05:23:58.894Z,36.88
2022-11-05T05:26:25.729Z,40.22
2022-11-05T05:28:53.730Z,37.03
2022-11-05T05:31:21.535Z,44.90
2022-11-05T05:33:48.407Z,46.13
2022-11-05T05:36:15.038Z,51.65
2022-11-05T05:38:41.666Z,47.67
2022-11-05T05:41:08.351Z,38.95
2022-11-05T05:43:35.043Z,37.35
2022-11-05T05:46:05.717Z,40.35
2022-11-05T05:48:32.467Z,38.22
2022-11-05T05:51:03.519Z,40.75
2022-11-05T05:53:30.631Z,40.08
2022-11-05T05:55:58.219Z,38.30
2022-11-05T05:58:28.923Z,41.13
2022-11-05T06:00:55.582Z,38.72
2022-11-05T06:03:22.222Z,46.72
2022-11-05T06:05:48.846Z,39.75
2022-11-05T06:08:15.473Z,37.35
2022-11-05T06:11:01.210Z,36.90
2022-11-05T06:13:28.387Z,33.20
2022-11-05T06:16:09.251Z,34.90
2022-11-05T06:18:36.692Z,32.97
2022-11-05T06:21:03.886Z,32.90
2022-11-05T06:23:34.980Z,37.70
2022-11-05T06:26:02.801Z,39.42
2022-11-05T06:28:29.749Z,35.72
2022-11-05T06:30:57.340Z,32.50
2022-11-05T06:33:24.312Z,31.75
2022-11-05T06:35:51.079Z,34.00
2022-11-05T06:38:17.758Z,33.78
2022-11-05T06:40:44.501Z,33.28
2022-11-05T06:43:11.438Z,34.50
2022-11-05T06:45:38.266Z,31.98
2022-11-05T06:48:05.247Z,35.47
2022-11-05T06:50:31.903Z,31.73
2022-11-05T06:53:00.411Z,32.78
2022-11-05T06:55:28.230Z,30.67
2022-11-05T06:57:55.483Z,31.45
2022-11-05T07:00:22.726Z,28.70
2022-11-05T07:02:49.766Z,32.28
2022-11-05T07:05:16.997Z,32.35
2022-11-05T07:07:44.648Z,33.05
2022-11-05T07:10:16.952Z,29.10
2022-11-05T07:12:43.671Z,28.02
2022-11-05T07:15:11.643Z,27.63
2022-11-05T07:17:39.496Z,30.25
2022-11-05T07:20:07.540Z,27.73
2022-11-05T07:22:35.084Z,26.42
2022-11-05T07:25:02.043Z,29.33
2022-11-05T07:27:28.774Z,28.67
2022-11-05T07:29:55.488Z,28.40
2022-11-05T07:32:22.213Z,28.23
2022-11-05T07:34:48.846Z,27.15
2022-11-05T07:37:16.832Z,24.92
2022-11-05T07:39:43.551Z,28.95
2022-11-05T07:42:13.949Z,25.88
2022-11-05T07:44:40.596Z,24.73
2022-11-05T07:47:07.664Z,26.88
2022-11-05T07:49:34.279Z,27.10
2022-11-05T07:52:00.909Z,28.00
2022-11-05T07:54:27.713Z,28.55
2022-11-05T07:56:54.379Z,27.08
2022-11-05T07:59:22.178Z,27.80
2022-11-05T08:01:49.033Z,27.52
2022-11-05T08:04:15.817Z,27.52
2022-11-05T08:06:42.489Z,25.65
2022-11-05T08:09:09.604Z,26.52
2022-11-05T08:11:36.304Z,25.98
2022-11-05T08:14:02.970Z,29.30
2022-11-05T08:16:29.698Z,28.05
2022-11-05T08:18:56.303Z,29.48
2022-11-05T08:21:22.928Z,28.05
2022-11-05T08:23:49.558Z,27.17
2022-11-05T08:26:16.196Z,27.25
2022-11-05T08:28:42.859Z,28.50
2022-11-05T08:31:09.475Z,26.20
2022-11-05T08:33:36.197Z,28.27
2022-11-05T08:36:04.482Z,27.52
2022-11-05T08:38:31.307Z,26.38
2022-11-05T08:40:58.335Z,26.90
2022-11-05T08:43:25.286Z,27.77
2022-11-05T08:45:52.004Z,27.27
2022-11-05T08:48:19.218Z,26.65
2022-11-05T08:50:46.946Z,26.58
2022-11-05T08:53:14.403Z,26.48
2022-11-05T08:55:41.333Z,28.70
2022-11-05T08:58:12.702Z,27.08
2022-11-05T09:00:40.193Z,26.05
2022-11-05T09:03:08.547Z,26.27
2022-11-05T09:05:37.781Z,28.08
2022-11-05T09:08:09.611Z,26.45
2022-11-05T09:10:36.554Z,26.95
2022-11-05T09:13:04.342Z,28.20
2022-11-05T09:15:31.671Z,25.20
2022-11-05T09:17:58.367Z,28.10
2022-11-05T09:20:25.061Z,25.42
2022-11-05T09:22:51.960Z,25.92
2022-11-05T09:25:18.577Z,26.83
2022-11-05T09:27:45.255Z,26.25
2022-11-05T09:30:13.309Z,27.15
2022-11-05T09:32:40.155Z,26.83
2022-11-05T09:35:07.583Z,29.58
2022-11-05T09:37:34.583Z,26.05
2022-11-05T09:40:01.201Z,27.58
2022-11-05T09:42:47.059Z,24.80
2022-11-05T09:45:17.531Z,24.48
2022-11-05T09:47:50.055Z,23.77
2022-11-05T09:50:23.006Z,26.30
2022-11-05T09:52:49.741Z,26.63
2022-11-05T09:55:28.256Z,25.73
2022-11-05T09:57:58.305Z,23.85
2022-11-05T10:00:25.000Z,24.92
2022-11-05T10:02:55.722Z,25.13
2022-11-05T10:05:24.228Z,25.95
2022-11-05T10:07:59.703Z,24.02
2022-11-05T10:10:40.593Z,21.67
2022-11-05T10:13:17.343Z,22.38
2022-11-05T10:15:51.778Z,21.83
2022-11-05T10:18:34.118Z,22.40
2022-11-05T10:21:01.214Z,21.77
2022-11-05T10:23:28.522Z,22.35
2022-11-05T10:25:58.466Z,22.83
2022-11-05T10:28:29.822Z,23.60
2022-11-05T10:30:59.763Z,22.27
2022-11-05T10:33:34.403Z,20.58
2022-11-05T10:36:10.735Z,21.00
2022-11-05T10:38:37.607Z,23.20
2022-11-05T10:41:10.174Z,22.40
2022-11-05T10:43:49.723Z,22.17
2022-11-05T10:46:29.235Z,22.60
2022-11-05T10:49:22.933Z,21.92
2022-11-05T10:51:56.973Z,19.58
2022-11-05T10:54:26.916Z,20.52
2022-11-05T10:56:53.535Z,20.70
2022-11-05T10:59:27.197Z,21.08
2022-11-05T11:02:02.864Z,21.02
2022-11-05T11:04:36.502Z,23.55
2022-11-05T11:07:04.601Z,21.55
2022-11-05T11:09:33.223Z,22.73
2022-11-05T11:12:06.508Z,20.58
2022-11-05T11:14:35.101Z,20.58
2022-11-05T11:17:31.547Z,22.75
2022-11-05T11:20:16.436Z,21.17
2022-11-05T11:22:56.087Z,22.13
2022-11-05T11:25:27.901Z,22.33
2022-11-05T11:27:54.842Z,20.75
2022-11-05T11:30:21.969Z,18.00
2022-11-05T11:32:49.344Z,17.40
2022-11-05T11:35:22.428Z,17.80
2022-11-05T11:37:49.594Z,19.20
2022-11-05T11:40:20.023Z,19.25
2022-11-05T11:42:49.480Z,18.75
2022-11-05T11:45:21.341Z,19.83
2022-11-05T11:47:49.254Z,18.45
2022-11-05T11:50:34.870Z,19.58
2022-11-05T11:53:20.245Z,17.17
2022-11-05T11:55:57.061Z,20.13
2022-11-05T11:58:25.835Z,20.35
2022-11-05T12:01:20.730Z,20.50
2022-11-05T12:04:29.411Z,19.52
2022-11-05T12:07:17.334Z,19.00
2022-11-05T12:10:01.813Z,20.05
2022-11-05T12:12:37.677Z,21.85
2022-11-05T12:15:32.827Z,18.67
2022-11-05T12:18:04.907Z,20.60
2022-11-05T12:20:48.638Z,20.38
2022-11-05T12:23:42.167Z,19.67
2022-11-05T12:26:45.855Z,24.35
2022-11-05T12:29:24.453Z,22.52
2022-11-05T12:32:03.356Z,22.77
2022-11-05T12:34:52.305Z,24.50
2022-11-05T12:37:24.911Z,23.17
2022-11-05T12:39:51.534Z,23.40
2022-11-05T12:43:17.408Z,25.35
2022-11-05T12:45:50.518Z,22.42
2022-11-05T12:48:35.838Z,23.17
2022-11-05T12:51:12.657Z,21.42
2022-11-05T12:54:17.888Z,22.38
2022-11-05T12:56:48.333Z,21.65
2022-11-05T12:59:20.095Z,20.45
2022-11-05T13:01:51.888Z,20.75
2022-11-05T13:04:50.858Z,19.42
2022-11-05T13:07:23.035Z,19.75
2022-11-05T13:10:00.220Z,22.92
2022-11-05T13:12:27.910Z,20.10
2022-11-05T13:15:13.354Z,18.15
2022-11-05T13:18:07.044Z,19.65
2022-11-05T13:20:37.933Z,18.85
2022-11-05T13:23:20.727Z,19.73
2022-11-05T13:25:54.802Z,20.38
2022-11-05T13:28:50.125Z,20.42
2022-11-05T13:31:21.078Z,19.67
2022-11-05T13:33:49.046Z,20.75
2022-11-05T13:36:36.584Z,19.75
2022-11-05T13:39:28.222Z,20.27
2022-11-05T13:42:13.487Z,19.70
2022-11-05T13:44:42.755Z,20.27
2022-11-05T13:47:28.275Z,21.40
2022-11-05T13:50:32.397Z,18.20
2022-11-05T13:53:23.363Z,22.08
2022-11-05T13:56:02.072Z,20.02
2022-11-05T13:58:49.494Z,21.92
2022-11-05T14:03:53.907Z,21.98
2022-11-05T14:06:38.603Z,20.73
2022-11-05T14:09:09.324Z,20.13
2022-11-05T14:11:50.957Z,19.90
2022-11-05T14:14:24.055Z,19.55
2022-11-05T14:17:14.019Z,20.13
2022-11-05T14:20:02.535Z,20.25
2022-11-05T14:22:32.174Z,18.88
2022-11-05T14:24:59.902Z,19.38
2022-11-05T14:27:29.490Z,21.90
2022-11-05T14:29:56.156Z,23.33
2022-11-05T14:32:25.229Z,19.60
2022-11-05T14:35:16.773Z,18.92
2022-11-05T14:37:54.401Z,22.00
2022-11-05T14:40:24.232Z,20.70
2022-11-05T14:42:57.195Z,22.38
2022-11-05T14:45:30.621Z,22.60
2022-11-05T14:48:03.002Z,20.85
2022-11-05T14:50:35.597Z,21.27
2022-11-05T14:53:10.629Z,23.42
2022-11-05T14:55:40.466Z,21.13
2022-11-05T14:58:28.511Z,23.83
2022-11-05T15:00:56.364Z,23.38
2022-11-05T15:03:45.970Z,23.75
2022-11-05T15:06:22.408Z,25.40
2022-11-05T15:08:48.971Z,24.25
2022-11-05T15:11:27.718Z,25.02
2022-11-05T15:13:54.331Z,29.38
2022-11-05T15:16:32.972Z,26.67
2022-11-05T15:19:00.215Z,24.00
2022-11-05T15:21:27.896Z,21.27
2022-11-05T15:23:59.262Z,21.92
2022-11-05T15:26:37.911Z,23.20
2022-11-05T15:29:15.676Z,25.05
2022-11-05T15:31:45.407Z,21.60
2022-11-05T15:34:30.974Z,24.83
2022-11-05T15:37:21.028Z,23.75
2022-11-05T15:39:49.926Z,22.48
2022-11-05T15:42:19.741Z,26.50
2022-11-05T15:44:51.091Z,29.73
2022-11-05T15:47:17.751Z,26.65
2022-11-05T15:49:56.376Z,24.88
2022-11-05T15:53:04.822Z,27.17
2022-11-05T15:55:52.627Z,25.75
2022-11-05T15:58:19.285Z,29.85
2022-11-05T16:00:49.484Z,24.85
2022-11-05T16:03:33.946Z,28.00
2022-11-05T16:06:01.218Z,26.60
2022-11-05T16:08:29.955Z,25.70
2022-11-05T16:11:01.144Z,25.52
2022-11-05T16:13:30.428Z,25.60
2022-11-05T16:15:59.950Z,24.02
2022-11-05T16:18:33.029Z,28.40
2022-11-05T16:21:22.729Z,26.80
2022-11-05T16:23:49.728Z,28.17
2022-11-05T16:29:39.935Z,23.15
2022-11-05T16:32:29.491Z,26.17
2022-11-05T16:35:02.810Z,27.23
2022-11-05T16:37:35.955Z,26.30
2022-11-05T16:40:03.734Z,29.08
2022-11-05T16:42:33.115Z,30.73
2022-11-05T16:44:59.757Z,27.55
2022-11-05T16:47:26.590Z,27.00
2022-11-05T16:49:53.220Z,26.35
2022-11-05T16:52:19.984Z,28.05
2022-11-05T16:54:46.776Z,30.27
2022-11-05T16:57:28.475Z,29.88
2022-11-05T16:59:55.840Z,35.50
2022-11-05T17:02:22.816Z,36.78
2022-11-05T17:04:49.622Z,33.47
2022-11-05T17:07:16.273Z,31.33
2022-11-05T17:09:43.141Z,30.02
2022-11-05T17:12:12.942Z,25.17
2022-11-05T17:14:39.569Z,26.88
2022-11-05T17:17:06.630Z,29.25
2022-11-05T17:19:33.635Z,28.10
2022-11-05T17:22:00.266Z,34.13
2022-11-05T17:24:26.904Z,37.63
2022-11-05T17:26:53.557Z,32.17
2022-11-05T17:29:20.269Z,36.40
2022-11-05T17:31:46.954Z,33.55
2022-11-05T17:34:13.667Z,51.15
2022-11-05T17:36:40.323Z,35.42
2022-11-05T17:39:06.998Z,46.22
2022-11-05T17:41:33.636Z,42.92
2022-11-05T17:44:00.683Z,32.95
2022-11-05T17:46:27.783Z,51.28
2022-11-05T17:48:54.431Z,35.60
2022-11-05T17:51:21.406Z,45.58
2022-11-05T17:53:51.224Z,36.63
2022-11-05T17:56:32.141Z,32.65
2022-11-05T17:59:01.380Z,43.67
2022-11-05T18:01:30.360Z,36.55
2022-11-05T18:03:57.220Z,35.13
2022-11-05T18:06:23.949Z,31.25
2022-11-05T18:08:50.726Z,38.75
2022-11-05T18:11:17.762Z,51.65
2022-11-05T18:13:44.563Z,33.80
2022-11-05T18:16:12.413Z,45.25
2022-11-05T18:18:39.110Z,58.80
2022-11-05T18:21:05.834Z,39.10
2022-11-05T18:23:32.796Z,37.03
2022-11-05T18:25:59.516Z,47.20
2022-11-05T18:28:26.175Z,36.70
2022-11-05T18:30:52.884Z,77.50
2022-11-05T18:33:20.749Z,45.35
2022-11-05T18:35:47.388Z,49.58
2022-11-05T18:38:14.017Z,34.00
2022-11-05T18:40:40.697Z,34.08
2022-11-05T18:43:07.432Z,39.60
2022-11-05T18:45:34.085Z,33.45
2022-11-05T18:48:01.820Z,36.65
2022-11-05T18:50:29.401Z,60.65
2022-11-05T18:52:56.508Z,44.17
2022-11-05T18:55:24.052Z,38.35
2022-11-05T18:57:50.818Z,46.08
2022-11-05T19:00:17.637Z,38.65
2022-11-05T19:02:44.455Z,35.00
2022-11-05T19:07:57.925Z,34.80
2022-11-05T19:10:25.131Z,65.07
2022-11-05T19:12:51.974Z,67.32
2022-11-05T19:15:18.675Z,60.67
2022-11-05T19:17:45.315Z,33.65
2022-11-05T19:20:12.274Z,35.85
2022-11-05T19:22:38.953Z,38.35
2022-11-05T19:25:06.454Z,56.33
2022-11-05T19:27:35.414Z,38.83
2022-11-05T19:30:02.493Z,40.95
2022-11-05T19:32:29.534Z,47.53
2022-11-05T19:34:56.130Z,65.68
2022-11-05T19:37:22.828Z,59.83
2022-11-05T19:39:49.443Z,36.97
2022-11-05T19:42:16.102Z,46.95
2022-11-05T19:44:43.793Z,40.35
2022-11-05T19:47:10.577Z,37.53
2022-11-05T19:49:37.236Z,39.25
2022-11-05T19:52:03.942Z,53.45
2022-11-05T19:54:30.609Z,39.53
2022-11-05T19:56:57.402Z,35.78
2022-11-05T19:59:24.128Z,40.00
2022-11-05T20:01:50.964Z,39.53
2022-11-05T20:04:17.684Z,40.35
2022-11-05T20:06:44.551Z,39.60
2022-11-05T20:09:22.727Z,41.50
2022-11-05T20:11:54.516Z,39.03
2022-11-05T20:14:21.802Z,41.08
2022-11-05T20:16:49.532Z,47.75
2022-11-05T20:19:19.187Z,39.40
2022-11-05T20:21:46.234Z,36.50
2022-11-05T20:24:18.733Z,44.20
2022-11-05T20:26:50.213Z,37.53
2022-11-05T20:29:16.970Z,53.72
2022-11-05T20:31:43.603Z,47.55
2022-11-05T20:34:10.602Z,41.38
2022-11-05T20:36:37.275Z,44.03
2022-11-05T20:39:04.050Z,53.88
2022-11-05T20:41:31.557Z,55.38
2022-11-05T20:43:58.276Z,55.83
2022-11-05T20:46:25.162Z,46.65
2022-11-05T20:48:51.937Z,41.03
2022-11-05T20:51:20.845Z,45.45
2022-11-05T20:53:47.939Z,39.92
2022-11-05T20:56:26.126Z,39.63
2022-11-05T20:58:53.321Z,44.50
2022-11-05T21:01:20.587Z,40.63
2022-11-05T21:03:47.847Z,39.25
2022-11-05T21:06:15.094Z,41.25
2022-11-05T21:08:42.095Z,38.78
2022-11-05T21:11:10.151Z,41.42
2022-11-05T21:13:36.885Z,41.65
2022-11-05T21:16:05.749Z,40.33
2022-11-05T21:18:34.619Z,38.22
2022-11-05T21:21:05.946Z,37.92
2022-11-05T21:23:32.593Z,43.08
2022-11-05T21:25:59.239Z,39.40
2022-11-05T21:28:25.899Z,42.53
2022-11-05T21:30:52.514Z,42.30
2022-11-05T21:33:19.190Z,35.70
2022-11-05T21:35:48.162Z,40.63
2022-11-05T21:38:16.232Z,38.65
2022-11-05T21:40:43.528Z,37.95
2022-11-05T21:43:10.628Z,35.50
2022-11-05T21:45:45.189Z,38.58
2022-11-05T21:48:12.306Z,35.40
2022-11-05T21:50:57.708Z,35.35
2022-11-05T21:53:43.712Z,35.40
2022-11-05T21:56:38.910Z,33.05
2022-11-05T21:59:24.795Z,32.50
2022-11-05T22:01:51.591Z,33.13
2022-11-05T22:04:18.364Z,34.05
2022-11-05T22:06:45.029Z,37.13
2022-11-05T22:09:11.683Z,35.00
2022-11-05T22:11:38.401Z,36.90
2022-11-05T22:14:05.064Z,33.70
2022-11-05T22:16:31.719Z,32.70
2022-11-05T22:18:59.063Z,33.45
2022-11-05T22:21:25.697Z,33.92
2022-11-05T22:23:53.219Z,35.88
2022-11-05T22:26:19.946Z,34.67
2022-11-05T22:28:46.637Z,36.78
2022-11-05T22:31:14.492Z,36.63
2022-11-05T22:33:41.216Z,36.33
2022-11-05T22:36:08.596Z,40.35
2022-11-05T22:38:35.590Z,39.65
2022-11-05T22:41:10.096Z,42.15
2022-11-05T22:43:37.022Z,36.58
2022-11-05T22:46:05.782Z,36.05
2022-11-05T22:48:33.045Z,38.50
2022-11-05T22:51:07.615Z,38.50
2022-11-05T22:53:35.345Z,36.08
2022-11-05T22:56:06.766Z,40.55
2022-11-05T22:58:33.807Z,40.30
2022-11-05T23:01:00.670Z,41.70
2022-11-05T23:03:28.869Z,42.53
2022-11-05T23:06:46.194Z,43.47
2022-11-05T23:09:40.447Z,59.95
2022-11-05T23:12:15.344Z,62.35
2022-11-05T23:14:41.990Z,65.75
2022-11-05T23:17:27.664Z,62.55
2022-11-05T23:20:12.908Z,60.30
2022-11-05T23:22:58.270Z,54.28
2022-11-05T23:25:25.046Z,57.50
2022-11-05T23:27:53.601Z,46.50
2022-11-05T23:30:23.009Z,45.50
2022-11-05T23:32:50.384Z,37.67
2022-11-05T23:35:17.528Z,34.03
2022-11-05T23:38:02.852Z,40.67
2022-11-05T23:40:30.858Z,43.78
2022-11-05T23:43:16.615Z,47.30
2022-11-05T23:46:03.023Z,42.83
2022-11-05T23:48:37.314Z,43.00
2022-11-05T23:51:11.236Z,51.00
2022-11-05T23:53:40.407Z,41.72
2022-11-05T23:56:10.047Z,46.30
2022-11-05T23:58:37.526Z,44.30
